< Cyclone 199705 1997 Season Cyclone 199707 >
Cyclone 199706 (PHIL)
General InformationDetailed Track InformationTrack Information on Google MapsList of All Images || ResourceGoogle EarthGE AnimationAtom FeedGeoJSON
Detalied Best Track Wind (Time Zone = UTC)
Year Month Day Hour Lat. Long. Wind (kt) Gust (kt) Direc. of Major Storm Axis Radius of Major Storm Axis (nm) Radius of Minor Storm Axis (nm) Direc. of Major Gale Axis Radius of Major Gale Axis (nm) Radius of Minor Gale Axis (nm) Image
1996 12 26 00 -13.3 137.0 0 -1 symmetric - - symmetric - - Image
1996 12 26 03 -13.3 136.4 0 -1 symmetric - - symmetric - - Image
1996 12 26 06 -13.2 136.1 0 -1 symmetric - - symmetric - - Image
1996 12 26 09 -13.2 135.8 0 -1 symmetric - - symmetric - - Image
1996 12 27 09 -14.1 129.0 0 -1 symmetric - - symmetric - - Image
1996 12 27 12 -14.4 128.2 0 -1 symmetric - - symmetric - - Image
1996 12 27 15 -14.7 127.3 0 -1 symmetric - - symmetric - - Image
1996 12 27 18 -14.8 126.5 0 -1 symmetric - - symmetric - - Image
1996 12 28 01 -15.1 124.5 41 -1 symmetric - - symmetric - - Image
1996 12 28 04 -15.1 124.0 45 -1 symmetric - - symmetric - - Image
1996 12 28 07 -15.1 123.4 47 -1 symmetric - - symmetric - - Image
1996 12 28 10 -15.1 122.9 54 -1 symmetric - - symmetric - - Image
1996 12 28 13 -15.2 122.4 60 -1 symmetric - - symmetric - - Image
1996 12 28 16 -15.2 121.8 60 -1 symmetric - - symmetric - - Image
1996 12 28 19 -15.2 121.3 60 -1 symmetric - - symmetric - - Image
1996 12 28 22 -15.3 120.7 60 -1 symmetric - - symmetric - - Image
1996 12 29 01 -15.3 120.4 60 -1 symmetric - - symmetric - - Image
1996 12 29 04 -15.3 120.1 54 -1 symmetric - - symmetric - - Image
1996 12 29 07 -15.4 119.8 54 -1 symmetric - - symmetric - - Image
1996 12 29 10 -15.4 119.7 54 -1 symmetric - - symmetric - - Image
1996 12 29 13 -15.4 119.6 54 -1 symmetric - - symmetric - - Image
1996 12 29 16 -15.6 119.5 54 -1 symmetric - - symmetric - - Image
1996 12 29 19 -15.8 119.3 54 -1 symmetric - - symmetric - - Image
1996 12 29 22 -16.0 119.1 54 -1 symmetric - - symmetric - - Image
1996 12 30 01 -16.2 118.9 54 -1 symmetric - - symmetric - - Image
1996 12 30 04 -16.5 118.6 47 -1 symmetric - - symmetric - - Image
1996 12 30 07 -16.8 118.2 47 -1 symmetric - - symmetric - - Image
1996 12 30 10 -17.0 117.7 47 -1 symmetric - - symmetric - - Image
1996 12 30 13 -17.0 117.5 47 -1 symmetric - - symmetric - - Image
1996 12 30 16 -17.0 117.1 41 -1 symmetric - - symmetric - - Image
1996 12 30 19 -17.0 116.8 41 -1 symmetric - - symmetric - - Image
1996 12 30 22 -17.0 116.5 41 -1 symmetric - - symmetric - - Image
1996 12 31 01 -17.1 116.1 41 -1 symmetric - - symmetric - - Image
1996 12 31 04 -17.4 115.7 41 -1 symmetric - - symmetric - - Image
1996 12 31 07 -17.6 115.3 35 -1 symmetric - - symmetric - - Image
1996 12 31 10 -17.7 115.0 35 -1 symmetric - - symmetric - - Image
1996 12 31 13 -17.7 114.6 29 -1 symmetric - - symmetric - - Image
1996 12 31 16 -17.6 114.1 29 -1 symmetric - - symmetric - - Image
1996 12 31 19 -17.5 113.7 29 -1 symmetric - - symmetric - - Image
1996 12 31 22 -17.4 113.3 29 -1 symmetric - - symmetric - - Image
1997 1 1 01 -17.3 112.8 29 -1 symmetric - - symmetric - - Image
1997 1 1 04 -17.4 112.3 29 -1 symmetric - - symmetric - - Image
1997 1 1 07 -17.5 111.8 29 -1 symmetric - - symmetric - - Image
1997 1 2 01 -16.8 109.4 27 -1 symmetric - - symmetric - - Image
1997 1 3 01 -18.5 105.3 27 -1 symmetric - - symmetric - - Image
< Cyclone 199705 1997 Season Cyclone 199707 >

Help